Horn, Austria
Current Conditions -  °F | °C
As of 12:00 AM on Friday 19 Dec 2014 (Local Time) from LKNA Reporting Station
Light Rain Light Rain  
Wind Chill: 43°   Ceiling: Unl
Heat Index: 46°   Visibility: 6mi
Dew Point: 45°   Wind: 7mph
Humidity: 93%   Direction: 220°SW
Pressure: 29.94"   Gusts: NA
Location:  48.67°N, 15.65°E
Report Text: LKNA 182300Z 22006KT 9999 -RA NSC 08/07 Q1014
Loading
Personal Weather Stations






























Interactive Weather Map New forecast layout! Learn more

10-Day Weather Forecast

Advertisements
Track Severe Weather on mobile